sensor_id;sensor_type;location;lat;lon;timestamp;P1;durP1;ratioP1;P2;durP2;ratioP2
74577;SDS011;63173;49.086;33.418;2023-04-24T00:02:15;9.50;;;4.07;;
74577;SDS011;63173;49.086;33.418;2023-04-24T00:04:41;9.27;;;4.47;;
74577;SDS011;63173;49.086;33.418;2023-04-24T00:07:09;9.40;;;3.85;;
74577;SDS011;63173;49.086;33.418;2023-04-24T00:09:35;7.03;;;3.70;;
74577;SDS011;63173;49.086;33.418;2023-04-24T00:12:00;8.05;;;3.88;;
74577;SDS011;63173;49.086;33.418;2023-04-24T00:14:29;6.35;;;3.72;;
74577;SDS011;63173;49.086;33.418;2023-04-24T00:16:55;8.10;;;3.85;;
74577;SDS011;63173;49.086;33.418;2023-04-24T00:19:20;11.18;;;3.63;;
74577;SDS011;63173;49.086;33.418;2023-04-24T00:21:46;6.88;;;3.95;;
74577;SDS011;63173;49.086;33.418;2023-04-24T00:26:40;7.90;;;4.00;;
74577;SDS011;63173;49.086;33.418;2023-04-24T00:29:05;7.47;;;3.88;;
74577;SDS011;63173;49.086;33.418;2023-04-24T00:31:31;5.72;;;3.58;;
74577;SDS011;63173;49.086;33.418;2023-04-24T00:33:57;8.35;;;3.80;;
74577;SDS011;63173;49.086;33.418;2023-04-24T00:36:23;8.18;;;3.42;;
74577;SDS011;63173;49.086;33.418;2023-04-24T00:38:48;8.18;;;3.92;;
74577;SDS011;63173;49.086;33.418;2023-04-24T00:41:13;7.93;;;3.83;;
74577;SDS011;63173;49.086;33.418;2023-04-24T00:43:39;9.80;;;3.83;;
74577;SDS011;63173;49.086;33.418;2023-04-24T00:46:04;8.30;;;3.85;;
74577;SDS011;63173;49.086;33.418;2023-04-24T00:51:26;8.18;;;4.07;;
74577;SDS011;63173;49.086;33.418;2023-04-24T00:56:01;8.55;;;4.05;;
74577;SDS011;63173;49.086;33.418;2023-04-24T00:58:27;8.75;;;4.40;;
74577;SDS011;63173;49.086;33.418;2023-04-24T01:00:54;6.10;;;3.60;;
74577;SDS011;63173;49.086;33.418;2023-04-24T01:03:20;10.73;;;4.40;;
74577;SDS011;63173;49.086;33.418;2023-04-24T01:05:49;7.60;;;3.83;;
74577;SDS011;63173;49.086;33.418;2023-04-24T01:08:15;6.70;;;3.83;;
74577;SDS011;63173;49.086;33.418;2023-04-24T01:10:41;10.52;;;4.90;;
74577;SDS011;63173;49.086;33.418;2023-04-24T01:13:09;8.68;;;4.47;;
74577;SDS011;63173;49.086;33.418;2023-04-24T01:15:35;9.23;;;5.20;;
74577;SDS011;63173;49.086;33.418;2023-04-24T01:18:00;11.32;;;5.15;;
74577;SDS011;63173;49.086;33.418;2023-04-24T01:20:26;12.60;;;5.50;;
74577;SDS011;63173;49.086;33.418;2023-04-24T01:22:52;9.52;;;4.93;;
74577;SDS011;63173;49.086;33.418;2023-04-24T01:25:19;7.82;;;4.82;;
74577;SDS011;63173;49.086;33.418;2023-04-24T01:27:45;7.88;;;4.43;;
74577;SDS011;63173;49.086;33.418;2023-04-24T01:30:11;10.85;;;5.45;;
74577;SDS011;63173;49.086;33.418;2023-04-24T01:32:37;7.55;;;4.32;;
74577;SDS011;63173;49.086;33.418;2023-04-24T01:35:04;7.60;;;4.15;;
74577;SDS011;63173;49.086;33.418;2023-04-24T01:37:29;11.40;;;4.60;;
74577;SDS011;63173;49.086;33.418;2023-04-24T01:39:57;10.15;;;5.03;;
74577;SDS011;63173;49.086;33.418;2023-04-24T01:42:22;9.50;;;4.50;;
74577;SDS011;63173;49.086;33.418;2023-04-24T01:44:48;9.65;;;4.25;;
74577;SDS011;63173;49.086;33.418;2023-04-24T01:51:38;8.97;;;4.90;;
74577;SDS011;63173;49.086;33.418;2023-04-24T01:54:30;9.38;;;5.38;;
74577;SDS011;63173;49.086;33.418;2023-04-24T01:56:55;12.15;;;6.03;;
74577;SDS011;63173;49.086;33.418;2023-04-24T01:59:21;10.30;;;5.35;;
74577;SDS011;63173;49.086;33.418;2023-04-24T02:01:48;9.63;;;4.90;;
74577;SDS011;63173;49.086;33.418;2023-04-24T02:04:13;8.30;;;4.68;;
74577;SDS011;63173;49.086;33.418;2023-04-24T02:06:40;12.20;;;4.95;;
74577;SDS011;63173;49.086;33.418;2023-04-24T02:09:05;9.27;;;4.18;;
74577;SDS011;63173;49.086;33.418;2023-04-24T02:11:31;10.77;;;4.65;;
74577;SDS011;63173;49.086;33.418;2023-04-24T02:13:56;8.00;;;4.20;;
74577;SDS011;63173;49.086;33.418;2023-04-24T02:16:22;10.00;;;4.70;;
74577;SDS011;63173;49.086;33.418;2023-04-24T02:18:48;7.93;;;3.88;;
74577;SDS011;63173;49.086;33.418;2023-04-24T02:21:13;7.80;;;4.32;;
74577;SDS011;63173;49.086;33.418;2023-04-24T02:23:38;8.77;;;4.60;;
74577;SDS011;63173;49.086;33.418;2023-04-24T02:26:04;9.57;;;4.68;;
74577;SDS011;63173;49.086;33.418;2023-04-24T02:28:29;7.93;;;4.50;;
74577;SDS011;63173;49.086;33.418;2023-04-24T02:30:55;10.65;;;5.22;;
74577;SDS011;63173;49.086;33.418;2023-04-24T02:33:20;9.05;;;4.60;;
74577;SDS011;63173;49.086;33.418;2023-04-24T02:35:46;9.05;;;4.68;;
74577;SDS011;63173;49.086;33.418;2023-04-24T02:38:11;8.90;;;4.57;;
74577;SDS011;63173;49.086;33.418;2023-04-24T02:40:36;10.52;;;5.15;;
74577;SDS011;63173;49.086;33.418;2023-04-24T02:43:02;9.95;;;5.03;;
74577;SDS011;63173;49.086;33.418;2023-04-24T02:45:27;8.57;;;4.60;;
74577;SDS011;63173;49.086;33.418;2023-04-24T02:47:53;7.78;;;4.38;;
74577;SDS011;63173;49.086;33.418;2023-04-24T02:50:18;9.27;;;4.90;;
74577;SDS011;63173;49.086;33.418;2023-04-24T02:52:43;8.35;;;4.38;;
74577;SDS011;63173;49.086;33.418;2023-04-24T02:55:09;8.15;;;4.82;;
74577;SDS011;63173;49.086;33.418;2023-04-24T02:57:34;10.85;;;5.00;;
74577;SDS011;63173;49.086;33.418;2023-04-24T03:00:00;8.32;;;4.85;;
74577;SDS011;63173;49.086;33.418;2023-04-24T03:02:25;20.30;;;4.65;;
74577;SDS011;63173;49.086;33.418;2023-04-24T03:04:51;7.88;;;4.40;;
74577;SDS011;63173;49.086;33.418;2023-04-24T03:07:16;6.90;;;4.57;;
74577;SDS011;63173;49.086;33.418;2023-04-24T03:09:42;7.15;;;4.35;;
74577;SDS011;63173;49.086;33.418;2023-04-24T03:12:07;8.07;;;4.32;;
74577;SDS011;63173;49.086;33.418;2023-04-24T03:14:32;10.27;;;4.90;;
74577;SDS011;63173;49.086;33.418;2023-04-24T03:16:58;8.05;;;4.32;;
74577;SDS011;63173;49.086;33.418;2023-04-24T03:19:24;9.32;;;4.80;;
74577;SDS011;63173;49.086;33.418;2023-04-24T03:21:49;8.10;;;4.70;;
74577;SDS011;63173;49.086;33.418;2023-04-24T03:24:15;11.40;;;5.30;;
74577;SDS011;63173;49.086;33.418;2023-04-24T03:26:40;9.48;;;5.10;;
74577;SDS011;63173;49.086;33.418;2023-04-24T03:29:06;10.93;;;4.97;;
74577;SDS011;63173;49.086;33.418;2023-04-24T03:31:32;12.15;;;5.65;;
74577;SDS011;63173;49.086;33.418;2023-04-24T03:33:57;11.63;;;5.40;;
74577;SDS011;63173;49.086;33.418;2023-04-24T03:36:23;9.70;;;5.18;;
74577;SDS011;63173;49.086;33.418;2023-04-24T03:38:48;12.68;;;5.45;;
74577;SDS011;63173;49.086;33.418;2023-04-24T03:41:13;10.70;;;6.07;;
74577;SDS011;63173;49.086;33.418;2023-04-24T03:43:39;13.48;;;5.95;;
74577;SDS011;63173;49.086;33.418;2023-04-24T03:46:05;17.17;;;7.90;;
74577;SDS011;63173;49.086;33.418;2023-04-24T03:48:30;16.52;;;6.80;;
74577;SDS011;63173;49.086;33.418;2023-04-24T03:50:56;18.80;;;7.38;;
74577;SDS011;63173;49.086;33.418;2023-04-24T03:53:21;13.82;;;7.38;;
74577;SDS011;63173;49.086;33.418;2023-04-24T03:55:47;16.45;;;7.75;;
74577;SDS011;63173;49.086;33.418;2023-04-24T03:58:12;22.15;;;8.73;;
74577;SDS011;63173;49.086;33.418;2023-04-24T04:00:39;15.85;;;8.50;;
74577;SDS011;63173;49.086;33.418;2023-04-24T04:03:05;26.55;;;9.25;;
74577;SDS011;63173;49.086;33.418;2023-04-24T04:05:31;20.10;;;9.70;;
74577;SDS011;63173;49.086;33.418;2023-04-24T04:07:56;19.95;;;8.90;;
74577;SDS011;63173;49.086;33.418;2023-04-24T04:10:22;30.70;;;14.30;;
74577;SDS011;63173;49.086;33.418;2023-04-24T04:12:47;26.52;;;12.50;;
74577;SDS011;63173;49.086;33.418;2023-04-24T04:15:13;20.17;;;10.68;;
74577;SDS011;63173;49.086;33.418;2023-04-24T04:17:38;22.23;;;11.35;;
74577;SDS011;63173;49.086;33.418;2023-04-24T04:20:04;29.70;;;11.52;;
74577;SDS011;63173;49.086;33.418;2023-04-24T04:22:33;14.65;;;6.97;;
74577;SDS011;63173;49.086;33.418;2023-04-24T04:24:58;11.40;;;5.10;;
74577;SDS011;63173;49.086;33.418;2023-04-24T04:27:25;9.57;;;5.40;;
74577;SDS011;63173;49.086;33.418;2023-04-24T04:29:51;10.85;;;4.45;;
74577;SDS011;63173;49.086;33.418;2023-04-24T04:32:17;8.02;;;4.35;;
74577;SDS011;63173;49.086;33.418;2023-04-24T04:34:43;8.65;;;5.03;;
74577;SDS011;63173;49.086;33.418;2023-04-24T04:37:10;12.35;;;6.38;;
74577;SDS011;63173;49.086;33.418;2023-04-24T04:39:37;11.70;;;5.47;;
74577;SDS011;63173;49.086;33.418;2023-04-24T04:42:02;13.45;;;5.63;;
74577;SDS011;63173;49.086;33.418;2023-04-24T04:44:28;14.57;;;5.00;;
74577;SDS011;63173;49.086;33.418;2023-04-24T04:46:55;8.82;;;4.55;;
74577;SDS011;63173;49.086;33.418;2023-04-24T04:49:21;19.33;;;5.68;;
74577;SDS011;63173;49.086;33.418;2023-04-24T04:51:48;15.73;;;6.13;;
74577;SDS011;63173;49.086;33.418;2023-04-24T04:54:15;9.40;;;4.47;;
74577;SDS011;63173;49.086;33.418;2023-04-24T04:56:41;9.30;;;5.00;;
74577;SDS011;63173;49.086;33.418;2023-04-24T04:59:06;13.75;;;6.72;;
74577;SDS011;63173;49.086;33.418;2023-04-24T05:01:32;20.13;;;8.75;;
74577;SDS011;63173;49.086;33.418;2023-04-24T05:03:57;24.10;;;11.50;;
74577;SDS011;63173;49.086;33.418;2023-04-24T05:06:23;35.25;;;10.35;;
74577;SDS011;63173;49.086;33.418;2023-04-24T05:08:48;18.27;;;8.82;;
74577;SDS011;63173;49.086;33.418;2023-04-24T05:11:14;20.73;;;9.60;;
74577;SDS011;63173;49.086;33.418;2023-04-24T05:13:39;22.45;;;9.27;;
74577;SDS011;63173;49.086;33.418;2023-04-24T05:16:05;21.63;;;9.10;;
74577;SDS011;63173;49.086;33.418;2023-04-24T05:18:31;18.20;;;9.82;;
74577;SDS011;63173;49.086;33.418;2023-04-24T05:20:56;19.38;;;9.90;;
74577;SDS011;63173;49.086;33.418;2023-04-24T05:23:21;22.98;;;9.88;;
74577;SDS011;63173;49.086;33.418;2023-04-24T05:25:47;18.50;;;9.82;;
74577;SDS011;63173;49.086;33.418;2023-04-24T05:28:12;17.55;;;8.73;;
74577;SDS011;63173;49.086;33.418;2023-04-24T05:30:38;26.50;;;9.55;;
74577;SDS011;63173;49.086;33.418;2023-04-24T05:33:03;18.90;;;9.45;;
74577;SDS011;63173;49.086;33.418;2023-04-24T05:35:29;14.98;;;8.05;;
74577;SDS011;63173;49.086;33.418;2023-04-24T05:37:54;15.50;;;7.70;;
74577;SDS011;63173;49.086;33.418;2023-04-24T05:40:20;15.02;;;7.85;;
74577;SDS011;63173;49.086;33.418;2023-04-24T05:42:45;11.77;;;6.85;;
74577;SDS011;63173;49.086;33.418;2023-04-24T05:45:10;13.55;;;6.40;;
74577;SDS011;63173;49.086;33.418;2023-04-24T05:47:41;25.25;;;7.15;;
74577;SDS011;63173;49.086;33.418;2023-04-24T05:50:07;28.80;;;7.40;;
74577;SDS011;63173;49.086;33.418;2023-04-24T05:52:32;18.33;;;6.70;;
74577;SDS011;63173;49.086;33.418;2023-04-24T05:54:58;9.82;;;5.70;;
74577;SDS011;63173;49.086;33.418;2023-04-24T05:57:23;19.05;;;6.68;;
74577;SDS011;63173;49.086;33.418;2023-04-24T05:59:49;18.30;;;6.60;;
74577;SDS011;63173;49.086;33.418;2023-04-24T06:02:15;13.43;;;5.00;;
74577;SDS011;63173;49.086;33.418;2023-04-24T06:04:40;11.18;;;5.55;;
74577;SDS011;63173;49.086;33.418;2023-04-24T06:07:06;7.65;;;4.05;;
74577;SDS011;63173;49.086;33.418;2023-04-24T06:09:32;18.08;;;4.07;;
74577;SDS011;63173;49.086;33.418;2023-04-24T06:11:57;12.38;;;4.30;;
74577;SDS011;63173;49.086;33.418;2023-04-24T06:14:23;7.72;;;4.43;;
74577;SDS011;63173;49.086;33.418;2023-04-24T06:16:49;11.18;;;4.20;;
74577;SDS011;63173;49.086;33.418;2023-04-24T06:19:14;9.07;;;4.30;;
74577;SDS011;63173;49.086;33.418;2023-04-24T06:21:40;8.73;;;4.45;;
74577;SDS011;63173;49.086;33.418;2023-04-24T06:24:05;7.60;;;4.22;;
74577;SDS011;63173;49.086;33.418;2023-04-24T06:26:30;10.52;;;4.88;;
74577;SDS011;63173;49.086;33.418;2023-04-24T06:28:56;9.55;;;4.13;;
74577;SDS011;63173;49.086;33.418;2023-04-24T06:31:24;15.88;;;4.97;;
74577;SDS011;63173;49.086;33.418;2023-04-24T06:33:49;8.35;;;4.07;;
74577;SDS011;63173;49.086;33.418;2023-04-24T06:36:15;10.55;;;5.55;;
74577;SDS011;63173;49.086;33.418;2023-04-24T06:38:40;10.63;;;5.82;;
74577;SDS011;63173;49.086;33.418;2023-04-24T06:41:06;28.13;;;12.02;;
74577;SDS011;63173;49.086;33.418;2023-04-24T06:43:32;21.58;;;6.38;;
74577;SDS011;63173;49.086;33.418;2023-04-24T06:45:58;9.45;;;4.63;;
74577;SDS011;63173;49.086;33.418;2023-04-24T06:48:24;11.25;;;5.28;;
74577;SDS011;63173;49.086;33.418;2023-04-24T06:50:50;7.78;;;4.75;;
74577;SDS011;63173;49.086;33.418;2023-04-24T06:53:16;12.98;;;5.03;;
74577;SDS011;63173;49.086;33.418;2023-04-24T06:55:41;9.00;;;4.40;;
74577;SDS011;63173;49.086;33.418;2023-04-24T06:58:08;11.48;;;4.78;;
74577;SDS011;63173;49.086;33.418;2023-04-24T07:00:34;8.48;;;3.95;;
74577;SDS011;63173;49.086;33.418;2023-04-24T07:02:59;8.07;;;4.32;;
74577;SDS011;63173;49.086;33.418;2023-04-24T07:05:25;15.23;;;4.50;;
74577;SDS011;63173;49.086;33.418;2023-04-24T07:07:50;14.50;;;4.78;;
74577;SDS011;63173;49.086;33.418;2023-04-24T07:10:16;8.05;;;4.18;;
74577;SDS011;63173;49.086;33.418;2023-04-24T07:12:41;11.48;;;4.10;;
74577;SDS011;63173;49.086;33.418;2023-04-24T07:15:07;8.38;;;4.15;;
74577;SDS011;63173;49.086;33.418;2023-04-24T07:17:33;9.77;;;4.22;;
74577;SDS011;63173;49.086;33.418;2023-04-24T07:20:00;10.35;;;4.20;;
74577;SDS011;63173;49.086;33.418;2023-04-24T07:22:25;11.77;;;5.75;;
74577;SDS011;63173;49.086;33.418;2023-04-24T07:24:51;9.68;;;4.03;;
74577;SDS011;63173;49.086;33.418;2023-04-24T07:27:16;9.23;;;4.25;;
74577;SDS011;63173;49.086;33.418;2023-04-24T07:29:42;11.38;;;4.47;;
74577;SDS011;63173;49.086;33.418;2023-04-24T07:32:08;13.00;;;4.50;;
74577;SDS011;63173;49.086;33.418;2023-04-24T07:34:34;6.85;;;3.72;;
74577;SDS011;63173;49.086;33.418;2023-04-24T07:36:59;7.35;;;3.97;;
74577;SDS011;63173;49.086;33.418;2023-04-24T07:39:25;8.52;;;3.72;;
74577;SDS011;63173;49.086;33.418;2023-04-24T07:41:51;7.35;;;3.83;;
74577;SDS011;63173;49.086;33.418;2023-04-24T07:44:17;6.88;;;3.72;;
74577;SDS011;63173;49.086;33.418;2023-04-24T07:46:42;8.30;;;3.65;;
74577;SDS011;63173;49.086;33.418;2023-04-24T07:49:07;7.63;;;3.55;;
74577;SDS011;63173;49.086;33.418;2023-04-24T07:51:33;9.05;;;3.13;;
74577;SDS011;63173;49.086;33.418;2023-04-24T07:54:03;6.88;;;3.08;;
74577;SDS011;63173;49.086;33.418;2023-04-24T07:56:32;9.35;;;3.40;;
74577;SDS011;63173;49.086;33.418;2023-04-24T07:58:58;6.07;;;3.08;;
74577;SDS011;63173;49.086;33.418;2023-04-24T08:01:24;6.68;;;3.47;;
74577;SDS011;63173;49.086;33.418;2023-04-24T08:03:49;7.57;;;3.25;;
74577;SDS011;63173;49.086;33.418;2023-04-24T08:06:15;7.28;;;3.40;;
74577;SDS011;63173;49.086;33.418;2023-04-24T08:08:40;8.48;;;3.55;;
74577;SDS011;63173;49.086;33.418;2023-04-24T08:11:06;8.52;;;3.25;;
74577;SDS011;63173;49.086;33.418;2023-04-24T08:13:31;7.75;;;3.20;;
74577;SDS011;63173;49.086;33.418;2023-04-24T08:15:57;5.35;;;3.10;;
74577;SDS011;63173;49.086;33.418;2023-04-24T08:18:22;9.18;;;3.30;;
74577;SDS011;63173;49.086;33.418;2023-04-24T08:20:48;6.78;;;3.25;;
74577;SDS011;63173;49.086;33.418;2023-04-24T08:23:13;10.68;;;3.38;;
74577;SDS011;63173;49.086;33.418;2023-04-24T08:25:39;7.15;;;3.85;;
74577;SDS011;63173;49.086;33.418;2023-04-24T08:28:05;10.05;;;4.00;;
74577;SDS011;63173;49.086;33.418;2023-04-24T08:30:31;9.07;;;3.35;;
74577;SDS011;63173;49.086;33.418;2023-04-24T08:32:57;7.93;;;3.35;;
74577;SDS011;63173;49.086;33.418;2023-04-24T08:35:22;8.18;;;3.70;;
74577;SDS011;63173;49.086;33.418;2023-04-24T08:37:48;14.05;;;3.67;;
74577;SDS011;63173;49.086;33.418;2023-04-24T08:40:14;8.32;;;4.15;;
74577;SDS011;63173;49.086;33.418;2023-04-24T08:42:41;8.35;;;3.78;;
74577;SDS011;63173;49.086;33.418;2023-04-24T08:45:11;7.25;;;3.50;;
74577;SDS011;63173;49.086;33.418;2023-04-24T08:47:38;6.47;;;3.33;;
74577;SDS011;63173;49.086;33.418;2023-04-24T08:50:04;6.57;;;3.00;;
74577;SDS011;63173;49.086;33.418;2023-04-24T08:52:32;6.30;;;3.22;;
74577;SDS011;63173;49.086;33.418;2023-04-24T08:54:58;8.88;;;3.25;;
74577;SDS011;63173;49.086;33.418;2023-04-24T08:57:26;6.43;;;3.10;;
74577;SDS011;63173;49.086;33.418;2023-04-24T08:59:52;9.43;;;3.10;;
74577;SDS011;63173;49.086;33.418;2023-04-24T09:02:18;13.63;;;3.50;;
74577;SDS011;63173;49.086;33.418;2023-04-24T09:04:44;7.40;;;3.05;;
74577;SDS011;63173;49.086;33.418;2023-04-24T09:07:12;7.90;;;3.15;;
74577;SDS011;63173;49.086;33.418;2023-04-24T09:09:39;8.57;;;2.67;;
74577;SDS011;63173;49.086;33.418;2023-04-24T09:12:06;6.57;;;2.78;;
74577;SDS011;63173;49.086;33.418;2023-04-24T09:14:34;10.75;;;2.90;;
74577;SDS011;63173;49.086;33.418;2023-04-24T09:17:01;12.73;;;4.65;;
74577;SDS011;63173;49.086;33.418;2023-04-24T09:19:27;8.15;;;2.65;;
74577;SDS011;63173;49.086;33.418;2023-04-24T09:21:52;6.57;;;2.45;;
74577;SDS011;63173;49.086;33.418;2023-04-24T09:24:19;7.57;;;3.03;;
74577;SDS011;63173;49.086;33.418;2023-04-24T09:26:47;6.22;;;2.80;;
74577;SDS011;63173;49.086;33.418;2023-04-24T09:29:17;10.70;;;3.67;;
74577;SDS011;63173;49.086;33.418;2023-04-24T09:31:44;5.50;;;2.78;;
74577;SDS011;63173;49.086;33.418;2023-04-24T09:34:10;3.90;;;2.50;;
74577;SDS011;63173;49.086;33.418;2023-04-24T09:36:37;6.97;;;2.75;;
74577;SDS011;63173;49.086;33.418;2023-04-24T09:39:04;11.13;;;2.88;;
74577;SDS011;63173;49.086;33.418;2023-04-24T09:41:33;5.75;;;2.60;;
74577;SDS011;63173;49.086;33.418;2023-04-24T09:44:12;8.65;;;2.80;;
74577;SDS011;63173;49.086;33.418;2023-04-24T09:46:40;5.03;;;2.83;;
74577;SDS011;63173;49.086;33.418;2023-04-24T09:49:10;6.43;;;2.80;;
74577;SDS011;63173;49.086;33.418;2023-04-24T09:51:39;5.07;;;2.53;;
74577;SDS011;63173;49.086;33.418;2023-04-24T09:54:11;5.60;;;2.50;;
74577;SDS011;63173;49.086;33.418;2023-04-24T09:56:43;6.68;;;2.83;;
74577;SDS011;63173;49.086;33.418;2023-04-24T09:59:14;5.57;;;2.20;;
74577;SDS011;63173;49.086;33.418;2023-04-24T10:01:40;3.22;;;2.22;;
74577;SDS011;63173;49.086;33.418;2023-04-24T10:06:51;4.90;;;2.33;;
74577;SDS011;63173;49.086;33.418;2023-04-24T10:09:19;4.75;;;2.10;;
74577;SDS011;63173;49.086;33.418;2023-04-24T10:11:47;10.10;;;2.45;;
74577;SDS011;63173;49.086;33.418;2023-04-24T10:14:14;6.13;;;2.30;;
74577;SDS011;63173;49.086;33.418;2023-04-24T10:16:41;7.07;;;2.30;;
74577;SDS011;63173;49.086;33.418;2023-04-24T10:19:07;5.20;;;2.40;;
74577;SDS011;63173;49.086;33.418;2023-04-24T10:21:33;6.82;;;2.35;;
74577;SDS011;63173;49.086;33.418;2023-04-24T10:24:01;5.05;;;2.00;;
74577;SDS011;63173;49.086;33.418;2023-04-24T10:26:28;6.18;;;2.33;;
74577;SDS011;63173;49.086;33.418;2023-04-24T10:28:54;6.47;;;2.17;;
74577;SDS011;63173;49.086;33.418;2023-04-24T10:31:22;4.18;;;2.35;;
74577;SDS011;63173;49.086;33.418;2023-04-24T10:33:48;7.90;;;2.60;;
74577;SDS011;63173;49.086;33.418;2023-04-24T10:36:16;8.70;;;2.35;;
74577;SDS011;63173;49.086;33.418;2023-04-24T10:38:43;5.82;;;2.05;;
74577;SDS011;63173;49.086;33.418;2023-04-24T10:41:12;5.78;;;2.20;;
74577;SDS011;63173;49.086;33.418;2023-04-24T10:43:44;7.15;;;2.10;;
74577;SDS011;63173;49.086;33.418;2023-04-24T10:46:10;5.30;;;2.22;;
74577;SDS011;63173;49.086;33.418;2023-04-24T10:48:35;5.75;;;2.00;;
74577;SDS011;63173;49.086;33.418;2023-04-24T10:51:10;6.10;;;2.10;;
74577;SDS011;63173;49.086;33.418;2023-04-24T10:53:38;6.82;;;2.22;;
74577;SDS011;63173;49.086;33.418;2023-04-24T10:56:04;2.83;;;1.92;;
74577;SDS011;63173;49.086;33.418;2023-04-24T11:01:03;9.35;;;2.40;;
74577;SDS011;63173;49.086;33.418;2023-04-24T11:03:30;4.68;;;2.08;;
74577;SDS011;63173;49.086;33.418;2023-04-24T11:06:01;5.22;;;2.50;;
74577;SDS011;63173;49.086;33.418;2023-04-24T11:08:38;8.20;;;2.25;;
74577;SDS011;63173;49.086;33.418;2023-04-24T11:11:11;4.78;;;2.17;;
74577;SDS011;63173;49.086;33.418;2023-04-24T11:19:08;4.68;;;2.05;;
74577;SDS011;63173;49.086;33.418;2023-04-24T11:21:46;5.18;;;1.95;;
74577;SDS011;63173;49.086;33.418;2023-04-24T11:37:44;5.38;;;2.13;;
74577;SDS011;63173;49.086;33.418;2023-04-24T11:40:19;10.77;;;2.65;;
74577;SDS011;63173;49.086;33.418;2023-04-24T11:42:48;8.23;;;3.03;;
74577;SDS011;63173;49.086;33.418;2023-04-24T11:45:15;4.25;;;1.95;;
74577;SDS011;63173;49.086;33.418;2023-04-24T11:47:43;10.40;;;2.65;;
74577;SDS011;63173;49.086;33.418;2023-04-24T11:50:11;3.92;;;2.45;;
74577;SDS011;63173;49.086;33.418;2023-04-24T11:52:38;9.23;;;2.60;;
74577;SDS011;63173;49.086;33.418;2023-04-24T11:55:22;5.82;;;2.50;;
74577;SDS011;63173;49.086;33.418;2023-04-24T11:57:54;11.52;;;2.60;;
74577;SDS011;63173;49.086;33.418;2023-04-24T12:00:22;5.45;;;2.50;;
74577;SDS011;63173;49.086;33.418;2023-04-24T12:02:50;6.50;;;2.33;;
74577;SDS011;63173;49.086;33.418;2023-04-24T12:05:19;6.53;;;2.35;;
74577;SDS011;63173;49.086;33.418;2023-04-24T12:07:52;10.07;;;2.75;;
74577;SDS011;63173;49.086;33.418;2023-04-24T12:10:25;8.15;;;3.00;;
74577;SDS011;63173;49.086;33.418;2023-04-24T12:12:52;10.88;;;2.72;;
74577;SDS011;63173;49.086;33.418;2023-04-24T12:15:19;9.32;;;2.67;;
74577;SDS011;63173;49.086;33.418;2023-04-24T12:17:45;8.45;;;2.50;;
74577;SDS011;63173;49.086;33.418;2023-04-24T12:20:11;8.00;;;2.38;;
74577;SDS011;63173;49.086;33.418;2023-04-24T12:25:16;6.63;;;2.70;;
74577;SDS011;63173;49.086;33.418;2023-04-24T12:27:47;3.95;;;2.22;;
74577;SDS011;63173;49.086;33.418;2023-04-24T12:30:18;5.63;;;2.10;;
74577;SDS011;63173;49.086;33.418;2023-04-24T12:32:45;11.20;;;2.20;;
74577;SDS011;63173;49.086;33.418;2023-04-24T12:35:24;7.13;;;2.00;;
74577;SDS011;63173;49.086;33.418;2023-04-24T12:37:50;4.85;;;2.13;;
74577;SDS011;63173;49.086;33.418;2023-04-24T12:40:17;7.78;;;2.28;;
74577;SDS011;63173;49.086;33.418;2023-04-24T12:42:44;6.15;;;1.88;;
74577;SDS011;63173;49.086;33.418;2023-04-24T12:45:14;6.22;;;2.17;;
74577;SDS011;63173;49.086;33.418;2023-04-24T12:47:41;4.82;;;1.98;;
74577;SDS011;63173;49.086;33.418;2023-04-24T12:50:10;8.13;;;3.17;;
74577;SDS011;63173;49.086;33.418;2023-04-24T12:52:37;6.72;;;2.13;;
74577;SDS011;63173;49.086;33.418;2023-04-24T12:55:04;4.13;;;2.10;;
74577;SDS011;63173;49.086;33.418;2023-04-24T12:57:33;4.70;;;2.05;;
74577;SDS011;63173;49.086;33.418;2023-04-24T12:59:59;11.85;;;2.42;;
74577;SDS011;63173;49.086;33.418;2023-04-24T13:02:26;10.70;;;2.55;;
74577;SDS011;63173;49.086;33.418;2023-04-24T13:04:54;5.32;;;1.90;;
74577;SDS011;63173;49.086;33.418;2023-04-24T13:07:19;11.05;;;3.10;;
74577;SDS011;63173;49.086;33.418;2023-04-24T13:09:45;7.70;;;2.33;;
74577;SDS011;63173;49.086;33.418;2023-04-24T13:12:12;7.38;;;2.15;;
74577;SDS011;63173;49.086;33.418;2023-04-24T13:14:38;5.68;;;2.40;;
74577;SDS011;63173;49.086;33.418;2023-04-24T13:17:03;4.90;;;2.28;;
74577;SDS011;63173;49.086;33.418;2023-04-24T13:19:34;8.30;;;2.15;;
74577;SDS011;63173;49.086;33.418;2023-04-24T13:22:01;8.25;;;2.03;;
74577;SDS011;63173;49.086;33.418;2023-04-24T13:24:26;12.00;;;2.70;;
74577;SDS011;63173;49.086;33.418;2023-04-24T13:26:52;8.35;;;3.30;;
74577;SDS011;63173;49.086;33.418;2023-04-24T13:29:18;6.65;;;1.73;;
74577;SDS011;63173;49.086;33.418;2023-04-24T13:31:44;11.32;;;2.70;;
74577;SDS011;63173;49.086;33.418;2023-04-24T13:34:09;8.85;;;2.70;;
74577;SDS011;63173;49.086;33.418;2023-04-24T13:36:35;8.20;;;2.55;;
74577;SDS011;63173;49.086;33.418;2023-04-24T13:39:01;8.57;;;2.58;;
74577;SDS011;63173;49.086;33.418;2023-04-24T13:41:26;7.50;;;2.28;;
74577;SDS011;63173;49.086;33.418;2023-04-24T13:43:52;4.32;;;2.10;;
74577;SDS011;63173;49.086;33.418;2023-04-24T13:46:17;6.80;;;2.40;;
74577;SDS011;63173;49.086;33.418;2023-04-24T13:48:43;6.53;;;2.20;;
74577;SDS011;63173;49.086;33.418;2023-04-24T13:51:08;6.57;;;2.35;;
74577;SDS011;63173;49.086;33.418;2023-04-24T13:53:34;10.68;;;2.58;;
74577;SDS011;63173;49.086;33.418;2023-04-24T13:56:03;9.48;;;2.53;;
74577;SDS011;63173;49.086;33.418;2023-04-24T13:58:28;7.95;;;2.80;;
74577;SDS011;63173;49.086;33.418;2023-04-24T14:00:54;8.10;;;2.42;;
74577;SDS011;63173;49.086;33.418;2023-04-24T14:03:20;7.85;;;2.58;;
74577;SDS011;63173;49.086;33.418;2023-04-24T14:05:45;7.78;;;2.20;;
74577;SDS011;63173;49.086;33.418;2023-04-24T14:08:11;6.28;;;2.53;;
74577;SDS011;63173;49.086;33.418;2023-04-24T14:10:36;9.00;;;2.20;;
74577;SDS011;63173;49.086;33.418;2023-04-24T14:13:02;14.93;;;6.18;;
74577;SDS011;63173;49.086;33.418;2023-04-24T14:15:28;7.85;;;2.10;;
74577;SDS011;63173;49.086;33.418;2023-04-24T14:17:53;7.13;;;2.28;;
74577;SDS011;63173;49.086;33.418;2023-04-24T14:20:19;7.32;;;2.00;;
74577;SDS011;63173;49.086;33.418;2023-04-24T14:22:44;9.68;;;2.10;;
74577;SDS011;63173;49.086;33.418;2023-04-24T14:25:10;7.88;;;2.50;;
74577;SDS011;63173;49.086;33.418;2023-04-24T14:27:36;7.00;;;2.13;;
74577;SDS011;63173;49.086;33.418;2023-04-24T14:30:01;12.82;;;4.80;;
74577;SDS011;63173;49.086;33.418;2023-04-24T14:32:28;3.80;;;1.70;;
74577;SDS011;63173;49.086;33.418;2023-04-24T14:34:53;11.77;;;2.42;;
74577;SDS011;63173;49.086;33.418;2023-04-24T14:37:18;7.40;;;2.25;;
74577;SDS011;63173;49.086;33.418;2023-04-24T14:39:44;6.03;;;2.03;;
74577;SDS011;63173;49.086;33.418;2023-04-24T14:42:10;16.95;;;2.67;;
74577;SDS011;63173;49.086;33.418;2023-04-24T14:44:36;10.95;;;2.67;;
74577;SDS011;63173;49.086;33.418;2023-04-24T14:47:01;11.43;;;3.38;;
74577;SDS011;63173;49.086;33.418;2023-04-24T14:49:26;12.80;;;2.75;;
74577;SDS011;63173;49.086;33.418;2023-04-24T14:51:52;5.30;;;1.90;;
74577;SDS011;63173;49.086;33.418;2023-04-24T14:54:17;9.27;;;2.22;;
74577;SDS011;63173;49.086;33.418;2023-04-24T14:56:43;7.45;;;2.08;;
74577;SDS011;63173;49.086;33.418;2023-04-24T14:59:09;5.10;;;1.92;;
74577;SDS011;63173;49.086;33.418;2023-04-24T15:01:35;8.10;;;2.10;;
74577;SDS011;63173;49.086;33.418;2023-04-24T15:04:00;9.15;;;2.15;;
74577;SDS011;63173;49.086;33.418;2023-04-24T15:06:25;7.28;;;2.33;;